sensor_id;sensor_type;location;lat;lon;timestamp;P1;durP1;ratioP1;P2;durP2;ratioP2
57331;SDS011;43164;50.908;18.092;2023-06-22T00:37:39;21.50;;;16.20;;
57331;SDS011;43164;50.908;18.092;2023-06-22T00:40:25;23.40;;;17.00;;
57331;SDS011;43164;50.908;18.092;2023-06-22T00:42:57;25.10;;;16.80;;
57331;SDS011;43164;50.908;18.092;2023-06-22T00:45:28;26.00;;;18.30;;
57331;SDS011;43164;50.908;18.092;2023-06-22T00:48:09;25.00;;;18.70;;
57331;SDS011;43164;50.908;18.092;2023-06-22T00:50:46;24.90;;;17.80;;
57331;SDS011;43164;50.908;18.092;2023-06-22T00:53:30;26.30;;;17.60;;
57331;SDS011;43164;50.908;18.092;2023-06-22T00:58:52;22.80;;;16.50;;
57331;SDS011;43164;50.908;18.092;2023-06-22T01:01:30;22.90;;;17.10;;
57331;SDS011;43164;50.908;18.092;2023-06-22T01:04:00;26.20;;;18.10;;
57331;SDS011;43164;50.908;18.092;2023-06-22T01:06:42;25.10;;;17.30;;
57331;SDS011;43164;50.908;18.092;2023-06-22T01:09:35;24.90;;;17.20;;
57331;SDS011;43164;50.908;18.092;2023-06-22T01:12:48;22.80;;;15.70;;
57331;SDS011;43164;50.908;18.092;2023-06-22T01:15:28;23.50;;;16.10;;
57331;SDS011;43164;50.908;18.092;2023-06-22T01:18:04;24.20;;;18.50;;
57331;SDS011;43164;50.908;18.092;2023-06-22T01:20:36;28.80;;;20.30;;
57331;SDS011;43164;50.908;18.092;2023-06-22T01:26:59;28.50;;;19.70;;
57331;SDS011;43164;50.908;18.092;2023-06-22T01:33:23;25.50;;;17.30;;
57331;SDS011;43164;50.908;18.092;2023-06-22T01:35:52;26.90;;;17.10;;
57331;SDS011;43164;50.908;18.092;2023-06-22T01:38:38;28.30;;;16.80;;
57331;SDS011;43164;50.908;18.092;2023-06-22T01:41:12;22.50;;;17.50;;
57331;SDS011;43164;50.908;18.092;2023-06-22T01:43:56;26.60;;;17.90;;
57331;SDS011;43164;50.908;18.092;2023-06-22T01:46:28;25.90;;;18.20;;
57331;SDS011;43164;50.908;18.092;2023-06-22T01:49:12;26.50;;;18.30;;
57331;SDS011;43164;50.908;18.092;2023-06-22T01:51:42;23.60;;;17.70;;
57331;SDS011;43164;50.908;18.092;2023-06-22T02:03:31;26.70;;;17.70;;
57331;SDS011;43164;50.908;18.092;2023-06-22T02:06:21;24.20;;;17.60;;
57331;SDS011;43164;50.908;18.092;2023-06-22T02:12:57;26.70;;;19.20;;
57331;SDS011;43164;50.908;18.092;2023-06-22T02:28:53;26.10;;;18.70;;
57331;SDS011;43164;50.908;18.092;2023-06-22T02:31:26;28.20;;;21.20;;
57331;SDS011;43164;50.908;18.092;2023-06-22T02:37:08;23.70;;;17.80;;
57331;SDS011;43164;50.908;18.092;2023-06-22T02:39:56;27.90;;;19.40;;
57331;SDS011;43164;50.908;18.092;2023-06-22T02:42:32;29.10;;;19.60;;
57331;SDS011;43164;50.908;18.092;2023-06-22T03:06:15;29.80;;;21.40;;
57331;SDS011;43164;50.908;18.092;2023-06-22T03:23:32;25.70;;;19.40;;
57331;SDS011;43164;50.908;18.092;2023-06-22T03:26:09;23.40;;;18.20;;
57331;SDS011;43164;50.908;18.092;2023-06-22T03:28:40;21.40;;;15.90;;
57331;SDS011;43164;50.908;18.092;2023-06-22T03:33:51;27.50;;;18.40;;
57331;SDS011;43164;50.908;18.092;2023-06-22T03:36:22;29.10;;;19.10;;
57331;SDS011;43164;50.908;18.092;2023-06-22T03:39:01;28.70;;;19.90;;
57331;SDS011;43164;50.908;18.092;2023-06-22T03:41:31;22.30;;;16.30;;
57331;SDS011;43164;50.908;18.092;2023-06-22T03:44:14;26.10;;;18.40;;
57331;SDS011;43164;50.908;18.092;2023-06-22T03:46:44;21.50;;;16.90;;
57331;SDS011;43164;50.908;18.092;2023-06-22T03:49:22;19.80;;;16.00;;
57331;SDS011;43164;50.908;18.092;2023-06-22T03:51:56;20.60;;;16.50;;
57331;SDS011;43164;50.908;18.092;2023-06-22T03:58:11;21.30;;;16.50;;
57331;SDS011;43164;50.908;18.092;2023-06-22T04:00:59;21.10;;;15.40;;
57331;SDS011;43164;50.908;18.092;2023-06-22T04:03:36;21.20;;;17.20;;
57331;SDS011;43164;50.908;18.092;2023-06-22T04:06:26;18.90;;;15.40;;
57331;SDS011;43164;50.908;18.092;2023-06-22T04:08:59;18.60;;;16.50;;
57331;SDS011;43164;50.908;18.092;2023-06-22T05:06:18;19.50;;;16.90;;
57331;SDS011;43164;50.908;18.092;2023-06-22T05:08:48;17.60;;;15.20;;
57331;SDS011;43164;50.908;18.092;2023-06-22T05:45:25;16.90;;;11.80;;
57331;SDS011;43164;50.908;18.092;2023-06-22T06:10:20;12.40;;;8.40;;
57331;SDS011;43164;50.908;18.092;2023-06-22T06:21:55;10.80;;;8.40;;
57331;SDS011;43164;50.908;18.092;2023-06-22T06:24:28;11.70;;;7.00;;
57331;SDS011;43164;50.908;18.092;2023-06-22T06:27:08;9.80;;;7.40;;
57331;SDS011;43164;50.908;18.092;2023-06-22T06:29:39;11.30;;;7.40;;
57331;SDS011;43164;50.908;18.092;2023-06-22T06:32:15;10.10;;;7.50;;
57331;SDS011;43164;50.908;18.092;2023-06-22T06:34:52;13.10;;;7.90;;
57331;SDS011;43164;50.908;18.092;2023-06-22T06:37:37;9.90;;;7.10;;
57331;SDS011;43164;50.908;18.092;2023-06-22T06:40:40;10.10;;;6.70;;
57331;SDS011;43164;50.908;18.092;2023-06-22T06:46:43;10.20;;;7.00;;
57331;SDS011;43164;50.908;18.092;2023-06-22T06:49:46;11.20;;;7.10;;
57331;SDS011;43164;50.908;18.092;2023-06-22T06:58:57;10.20;;;7.20;;
57331;SDS011;43164;50.908;18.092;2023-06-22T07:13:15;10.50;;;7.00;;
57331;SDS011;43164;50.908;18.092;2023-06-22T07:18:35;10.00;;;6.40;;
57331;SDS011;43164;50.908;18.092;2023-06-22T07:21:06;10.30;;;7.10;;
57331;SDS011;43164;50.908;18.092;2023-06-22T07:23:38;10.90;;;5.80;;
57331;SDS011;43164;50.908;18.092;2023-06-22T07:26:08;11.40;;;6.90;;
57331;SDS011;43164;50.908;18.092;2023-06-22T07:28:41;8.90;;;5.60;;
57331;SDS011;43164;50.908;18.092;2023-06-22T07:31:15;9.80;;;6.60;;
57331;SDS011;43164;50.908;18.092;2023-06-22T07:33:47;9.80;;;6.30;;
57331;SDS011;43164;50.908;18.092;2023-06-22T07:36:34;10.30;;;6.10;;
57331;SDS011;43164;50.908;18.092;2023-06-22T07:50:17;9.00;;;6.80;;
57331;SDS011;43164;50.908;18.092;2023-06-22T07:56:40;11.90;;;7.80;;
57331;SDS011;43164;50.908;18.092;2023-06-22T07:59:34;12.50;;;7.60;;
57331;SDS011;43164;50.908;18.092;2023-06-22T08:05:17;10.30;;;6.90;;
57331;SDS011;43164;50.908;18.092;2023-06-22T08:11:09;9.80;;;6.90;;
57331;SDS011;43164;50.908;18.092;2023-06-22T08:14:05;12.00;;;7.90;;
57331;SDS011;43164;50.908;18.092;2023-06-22T08:20:28;11.20;;;7.00;;
57331;SDS011;43164;50.908;18.092;2023-06-22T08:33:40;9.10;;;6.40;;
57331;SDS011;43164;50.908;18.092;2023-06-22T08:36:17;12.80;;;7.70;;
57331;SDS011;43164;50.908;18.092;2023-06-22T08:38:58;10.80;;;6.90;;
57331;SDS011;43164;50.908;18.092;2023-06-22T08:41:37;10.40;;;6.60;;
57331;SDS011;43164;50.908;18.092;2023-06-22T08:44:11;16.30;;;7.80;;
57331;SDS011;43164;50.908;18.092;2023-06-22T08:46:52;11.50;;;7.30;;
57331;SDS011;43164;50.908;18.092;2023-06-22T09:24:23;10.10;;;6.70;;
57331;SDS011;43164;50.908;18.092;2023-06-22T09:34:54;9.00;;;6.00;;
57331;SDS011;43164;50.908;18.092;2023-06-22T09:44:39;8.20;;;5.40;;
57331;SDS011;43164;50.908;18.092;2023-06-22T09:47:18;8.20;;;5.60;;
57331;SDS011;43164;50.908;18.092;2023-06-22T09:49:54;9.90;;;5.90;;
57331;SDS011;43164;50.908;18.092;2023-06-22T09:52:35;11.50;;;5.80;;
57331;SDS011;43164;50.908;18.092;2023-06-22T09:55:08;9.50;;;6.40;;
57331;SDS011;43164;50.908;18.092;2023-06-22T09:57:58;8.20;;;5.50;;
57331;SDS011;43164;50.908;18.092;2023-06-22T10:00:58;9.20;;;5.30;;
57331;SDS011;43164;50.908;18.092;2023-06-22T10:03:48;11.40;;;5.20;;
57331;SDS011;43164;50.908;18.092;2023-06-22T10:06:49;12.00;;;5.80;;
57331;SDS011;43164;50.908;18.092;2023-06-22T10:12:25;9.80;;;6.40;;
57331;SDS011;43164;50.908;18.092;2023-06-22T10:15:05;10.70;;;6.60;;
57331;SDS011;43164;50.908;18.092;2023-06-22T10:56:36;8.30;;;4.20;;
57331;SDS011;43164;50.908;18.092;2023-06-22T10:59:26;7.10;;;4.50;;
57331;SDS011;43164;50.908;18.092;2023-06-22T11:02:06;7.10;;;4.50;;
57331;SDS011;43164;50.908;18.092;2023-06-22T11:04:44;7.30;;;4.40;;
57331;SDS011;43164;50.908;18.092;2023-06-22T11:07:15;6.70;;;4.10;;
57331;SDS011;43164;50.908;18.092;2023-06-22T11:09:57;6.70;;;4.00;;
57331;SDS011;43164;50.908;18.092;2023-06-22T11:16:27;7.70;;;4.60;;
57331;SDS011;43164;50.908;18.092;2023-06-22T11:21:55;8.20;;;4.80;;
57331;SDS011;43164;50.908;18.092;2023-06-22T11:25:09;7.00;;;4.10;;
57331;SDS011;43164;50.908;18.092;2023-06-22T11:34:22;8.10;;;4.10;;
57331;SDS011;43164;50.908;18.092;2023-06-22T11:37:01;7.70;;;4.70;;
57331;SDS011;43164;50.908;18.092;2023-06-22T11:39:33;9.00;;;4.50;;
57331;SDS011;43164;50.908;18.092;2023-06-22T11:44:59;8.00;;;3.90;;
57331;SDS011;43164;50.908;18.092;2023-06-22T11:47:36;6.50;;;3.90;;
57331;SDS011;43164;50.908;18.092;2023-06-22T11:50:14;6.80;;;3.60;;
57331;SDS011;43164;50.908;18.092;2023-06-22T11:53:12;8.80;;;4.20;;
57331;SDS011;43164;50.908;18.092;2023-06-22T12:05:30;6.10;;;3.50;;
57331;SDS011;43164;50.908;18.092;2023-06-22T12:08:04;6.70;;;4.10;;
57331;SDS011;43164;50.908;18.092;2023-06-22T12:10:34;11.00;;;4.00;;
57331;SDS011;43164;50.908;18.092;2023-06-22T12:24:17;6.50;;;4.10;;
57331;SDS011;43164;50.908;18.092;2023-06-22T12:26:53;7.80;;;4.20;;
57331;SDS011;43164;50.908;18.092;2023-06-22T12:33:36;6.50;;;3.60;;
57331;SDS011;43164;50.908;18.092;2023-06-22T12:36:10;6.60;;;4.20;;
57331;SDS011;43164;50.908;18.092;2023-06-22T12:41:45;7.90;;;3.90;;
57331;SDS011;43164;50.908;18.092;2023-06-22T12:44:39;5.50;;;3.10;;
57331;SDS011;43164;50.908;18.092;2023-06-22T13:01:07;7.10;;;4.30;;
57331;SDS011;43164;50.908;18.092;2023-06-22T13:13:54;7.10;;;3.60;;
57331;SDS011;43164;50.908;18.092;2023-06-22T13:26:50;6.80;;;3.80;;
57331;SDS011;43164;50.908;18.092;2023-06-22T13:43:44;6.10;;;3.70;;
57331;SDS011;43164;50.908;18.092;2023-06-22T13:57:53;5.90;;;3.50;;
57331;SDS011;43164;50.908;18.092;2023-06-22T14:00:33;5.50;;;3.50;;
57331;SDS011;43164;50.908;18.092;2023-06-22T14:14:17;6.70;;;3.50;;
57331;SDS011;43164;50.908;18.092;2023-06-22T14:23:33;6.60;;;3.20;;
57331;SDS011;43164;50.908;18.092;2023-06-22T14:26:19;5.20;;;5.70;;
57331;SDS011;43164;50.908;18.092;2023-06-22T14:29:06;5.40;;;3.30;;
57331;SDS011;43164;50.908;18.092;2023-06-22T14:35:13;6.30;;;3.20;;
57331;SDS011;43164;50.908;18.092;2023-06-22T14:38:13;6.90;;;3.60;;
57331;SDS011;43164;50.908;18.092;2023-06-22T14:44:10;6.00;;;3.40;;
57331;SDS011;43164;50.908;18.092;2023-06-22T14:46:53;7.60;;;3.40;;
57331;SDS011;43164;50.908;18.092;2023-06-22T14:49:31;7.80;;;3.70;;
57331;SDS011;43164;50.908;18.092;2023-06-22T14:54:49;6.60;;;3.50;;
57331;SDS011;43164;50.908;18.092;2023-06-22T15:00:28;5.40;;;3.40;;
57331;SDS011;43164;50.908;18.092;2023-06-22T15:03:10;5.90;;;3.50;;
57331;SDS011;43164;50.908;18.092;2023-06-22T15:06:10;6.20;;;3.40;;
57331;SDS011;43164;50.908;18.092;2023-06-22T15:16:22;6.50;;;3.70;;
57331;SDS011;43164;50.908;18.092;2023-06-22T15:19:01;6.80;;;3.60;;
57331;SDS011;43164;50.908;18.092;2023-06-22T15:21:46;6.70;;;3.60;;
57331;SDS011;43164;50.908;18.092;2023-06-22T15:24:25;6.40;;;3.50;;
57331;SDS011;43164;50.908;18.092;2023-06-22T15:30:43;6.20;;;3.80;;
57331;SDS011;43164;50.908;18.092;2023-06-22T15:37:12;6.40;;;3.60;;
57331;SDS011;43164;50.908;18.092;2023-06-22T16:17:05;7.40;;;4.30;;
57331;SDS011;43164;50.908;18.092;2023-06-22T16:20:16;7.90;;;4.30;;
57331;SDS011;43164;50.908;18.092;2023-06-22T16:23:07;6.20;;;3.70;;
57331;SDS011;43164;50.908;18.092;2023-06-22T16:28:12;5.90;;;3.60;;
57331;SDS011;43164;50.908;18.092;2023-06-22T16:30:55;5.90;;;3.40;;
57331;SDS011;43164;50.908;18.092;2023-06-22T16:33:32;8.10;;;3.90;;
57331;SDS011;43164;50.908;18.092;2023-06-22T16:36:16;8.60;;;4.00;;
57331;SDS011;43164;50.908;18.092;2023-06-22T16:38:54;6.50;;;3.80;;
57331;SDS011;43164;50.908;18.092;2023-06-22T16:41:35;5.20;;;3.40;;
57331;SDS011;43164;50.908;18.092;2023-06-22T17:01:13;6.90;;;4.40;;
57331;SDS011;43164;50.908;18.092;2023-06-22T17:04:27;7.30;;;4.20;;
57331;SDS011;43164;50.908;18.092;2023-06-22T17:13:36;10.00;;;4.60;;
57331;SDS011;43164;50.908;18.092;2023-06-22T17:16:21;8.80;;;4.60;;
57331;SDS011;43164;50.908;18.092;2023-06-22T17:25:16;7.70;;;4.40;;
57331;SDS011;43164;50.908;18.092;2023-06-22T17:27:57;7.70;;;4.60;;
57331;SDS011;43164;50.908;18.092;2023-06-22T17:30:44;7.40;;;4.70;;
57331;SDS011;43164;50.908;18.092;2023-06-22T17:33:15;7.70;;;4.80;;
57331;SDS011;43164;50.908;18.092;2023-06-22T17:35:51;8.00;;;4.40;;
57331;SDS011;43164;50.908;18.092;2023-06-22T17:38:31;8.30;;;4.70;;
57331;SDS011;43164;50.908;18.092;2023-06-22T17:41:07;10.40;;;5.50;;
57331;SDS011;43164;50.908;18.092;2023-06-22T17:43:58;12.20;;;4.80;;
57331;SDS011;43164;50.908;18.092;2023-06-22T17:46:43;10.10;;;5.50;;
57331;SDS011;43164;50.908;18.092;2023-06-22T17:49:23;7.50;;;4.90;;
57331;SDS011;43164;50.908;18.092;2023-06-22T17:52:03;8.20;;;4.80;;
57331;SDS011;43164;50.908;18.092;2023-06-22T17:54:51;8.40;;;4.80;;
57331;SDS011;43164;50.908;18.092;2023-06-22T17:57:37;7.90;;;4.70;;
57331;SDS011;43164;50.908;18.092;2023-06-22T18:04:05;7.60;;;4.40;;
57331;SDS011;43164;50.908;18.092;2023-06-22T18:16:56;7.80;;;5.00;;
57331;SDS011;43164;50.908;18.092;2023-06-22T18:22:57;8.40;;;4.90;;
57331;SDS011;43164;50.908;18.092;2023-06-22T18:25:41;9.00;;;4.40;;
57331;SDS011;43164;50.908;18.092;2023-06-22T18:28:17;8.60;;;4.70;;
57331;SDS011;43164;50.908;18.092;2023-06-22T18:30:54;9.80;;;4.80;;
57331;SDS011;43164;50.908;18.092;2023-06-22T18:33:32;8.10;;;4.30;;
57331;SDS011;43164;50.908;18.092;2023-06-22T18:36:11;8.30;;;4.40;;
57331;SDS011;43164;50.908;18.092;2023-06-22T18:38:49;11.10;;;4.80;;
57331;SDS011;43164;50.908;18.092;2023-06-22T18:41:20;17.60;;;4.90;;
57331;SDS011;43164;50.908;18.092;2023-06-22T18:47:00;11.20;;;4.00;;
57331;SDS011;43164;50.908;18.092;2023-06-22T18:54:47;11.80;;;4.20;;
57331;SDS011;43164;50.908;18.092;2023-06-22T19:00:08;7.60;;;3.50;;
57331;SDS011;43164;50.908;18.092;2023-06-22T19:05:38;9.10;;;3.50;;
57331;SDS011;43164;50.908;18.092;2023-06-22T19:08:11;8.20;;;3.50;;
57331;SDS011;43164;50.908;18.092;2023-06-22T19:10:46;7.50;;;4.00;;
57331;SDS011;43164;50.908;18.092;2023-06-22T19:13:27;5.90;;;3.00;;
57331;SDS011;43164;50.908;18.092;2023-06-22T19:16:06;13.00;;;3.50;;
57331;SDS011;43164;50.908;18.092;2023-06-22T19:18:39;7.40;;;3.40;;
57331;SDS011;43164;50.908;18.092;2023-06-22T19:23:50;6.70;;;3.40;;
57331;SDS011;43164;50.908;18.092;2023-06-22T19:26:37;6.90;;;3.70;;
57331;SDS011;43164;50.908;18.092;2023-06-22T19:29:15;8.90;;;3.40;;
57331;SDS011;43164;50.908;18.092;2023-06-22T19:31:45;8.20;;;3.70;;
57331;SDS011;43164;50.908;18.092;2023-06-22T19:34:15;7.40;;;3.60;;
57331;SDS011;43164;50.908;18.092;2023-06-22T19:36:58;6.90;;;3.30;;
57331;SDS011;43164;50.908;18.092;2023-06-22T19:39:37;7.70;;;3.30;;
57331;SDS011;43164;50.908;18.092;2023-06-22T19:42:07;8.80;;;3.00;;
57331;SDS011;43164;50.908;18.092;2023-06-22T19:44:36;7.80;;;3.10;;
57331;SDS011;43164;50.908;18.092;2023-06-22T19:47:06;10.00;;;3.40;;
57331;SDS011;43164;50.908;18.092;2023-06-22T19:49:36;7.60;;;3.20;;
57331;SDS011;43164;50.908;18.092;2023-06-22T19:52:13;5.70;;;3.20;;
57331;SDS011;43164;50.908;18.092;2023-06-22T19:54:44;7.00;;;3.20;;
57331;SDS011;43164;50.908;18.092;2023-06-22T20:03:31;6.90;;;3.30;;
57331;SDS011;43164;50.908;18.092;2023-06-22T20:06:08;6.60;;;2.90;;
57331;SDS011;43164;50.908;18.092;2023-06-22T20:08:43;7.60;;;3.30;;
57331;SDS011;43164;50.908;18.092;2023-06-22T20:11:24;6.20;;;3.00;;
57331;SDS011;43164;50.908;18.092;2023-06-22T20:14:02;5.80;;;2.70;;
57331;SDS011;43164;50.908;18.092;2023-06-22T20:16:31;5.90;;;2.60;;
57331;SDS011;43164;50.908;18.092;2023-06-22T20:19:37;6.30;;;2.80;;
57331;SDS011;43164;50.908;18.092;2023-06-22T20:22:12;7.20;;;3.30;;
57331;SDS011;43164;50.908;18.092;2023-06-22T20:24:41;7.20;;;3.00;;
57331;SDS011;43164;50.908;18.092;2023-06-22T20:27:11;5.40;;;2.80;;
57331;SDS011;43164;50.908;18.092;2023-06-22T20:29:43;7.50;;;3.50;;
57331;SDS011;43164;50.908;18.092;2023-06-22T20:32:13;6.60;;;3.00;;
57331;SDS011;43164;50.908;18.092;2023-06-22T20:34:51;7.80;;;3.30;;
57331;SDS011;43164;50.908;18.092;2023-06-22T20:37:21;7.80;;;3.40;;
57331;SDS011;43164;50.908;18.092;2023-06-22T20:39:59;6.10;;;3.20;;
57331;SDS011;43164;50.908;18.092;2023-06-22T20:42:27;6.00;;;3.10;;
57331;SDS011;43164;50.908;18.092;2023-06-22T20:44:56;6.70;;;3.00;;
57331;SDS011;43164;50.908;18.092;2023-06-22T20:47:24;6.00;;;3.00;;
57331;SDS011;43164;50.908;18.092;2023-06-22T20:49:53;13.10;;;3.40;;
57331;SDS011;43164;50.908;18.092;2023-06-22T20:52:27;10.50;;;4.00;;
57331;SDS011;43164;50.908;18.092;2023-06-22T20:54:56;8.20;;;3.90;;
57331;SDS011;43164;50.908;18.092;2023-06-22T20:57:25;8.40;;;4.10;;
57331;SDS011;43164;50.908;18.092;2023-06-22T20:59:55;7.20;;;3.40;;
57331;SDS011;43164;50.908;18.092;2023-06-22T21:02:23;8.60;;;3.50;;
57331;SDS011;43164;50.908;18.092;2023-06-22T21:04:51;6.30;;;3.30;;
57331;SDS011;43164;50.908;18.092;2023-06-22T21:07:21;7.60;;;3.80;;
57331;SDS011;43164;50.908;18.092;2023-06-22T21:09:51;9.90;;;4.40;;
57331;SDS011;43164;50.908;18.092;2023-06-22T21:12:19;9.50;;;3.90;;
57331;SDS011;43164;50.908;18.092;2023-06-22T21:14:49;8.10;;;3.90;;
57331;SDS011;43164;50.908;18.092;2023-06-22T21:40:51;8.10;;;3.80;;
57331;SDS011;43164;50.908;18.092;2023-06-22T21:51:17;8.70;;;4.10;;
57331;SDS011;43164;50.908;18.092;2023-06-22T21:57:02;9.30;;;3.70;;
57331;SDS011;43164;50.908;18.092;2023-06-22T21:59:49;12.20;;;4.60;;
57331;SDS011;43164;50.908;18.092;2023-06-22T22:06:07;9.90;;;4.30;;
57331;SDS011;43164;50.908;18.092;2023-06-22T22:08:51;12.30;;;4.70;;
57331;SDS011;43164;50.908;18.092;2023-06-22T22:14:07;10.20;;;4.40;;
57331;SDS011;43164;50.908;18.092;2023-06-22T22:16:38;10.10;;;4.30;;
57331;SDS011;43164;50.908;18.092;2023-06-22T22:19:17;9.10;;;4.00;;
57331;SDS011;43164;50.908;18.092;2023-06-22T22:22:00;8.90;;;4.10;;
57331;SDS011;43164;50.908;18.092;2023-06-22T22:24:30;8.40;;;4.00;;
57331;SDS011;43164;50.908;18.092;2023-06-22T22:26:58;7.70;;;3.60;;
57331;SDS011;43164;50.908;18.092;2023-06-22T22:29:27;11.00;;;4.00;;
57331;SDS011;43164;50.908;18.092;2023-06-22T22:31:54;8.50;;;4.20;;
57331;SDS011;43164;50.908;18.092;2023-06-22T22:34:26;7.90;;;3.90;;
57331;SDS011;43164;50.908;18.092;2023-06-22T22:36:53;7.10;;;3.70;;
57331;SDS011;43164;50.908;18.092;2023-06-22T22:39:32;9.60;;;3.90;;
57331;SDS011;43164;50.908;18.092;2023-06-22T22:42:02;7.80;;;4.10;;
57331;SDS011;43164;50.908;18.092;2023-06-22T22:44:32;8.30;;;3.60;;
57331;SDS011;43164;50.908;18.092;2023-06-22T22:47:01;7.40;;;3.30;;
57331;SDS011;43164;50.908;18.092;2023-06-22T22:49:30;7.10;;;3.40;;
57331;SDS011;43164;50.908;18.092;2023-06-22T22:51:58;10.60;;;3.60;;
57331;SDS011;43164;50.908;18.092;2023-06-22T22:54:27;7.10;;;3.50;;
57331;SDS011;43164;50.908;18.092;2023-06-22T22:57:02;8.50;;;3.80;;
57331;SDS011;43164;50.908;18.092;2023-06-22T22:59:33;11.00;;;4.60;;
57331;SDS011;43164;50.908;18.092;2023-06-22T23:02:00;6.50;;;3.40;;
57331;SDS011;43164;50.908;18.092;2023-06-22T23:04:31;8.40;;;3.60;;
57331;SDS011;43164;50.908;18.092;2023-06-22T23:07:01;8.70;;;3.50;;
57331;SDS011;43164;50.908;18.092;2023-06-22T23:09:29;8.00;;;3.90;;
57331;SDS011;43164;50.908;18.092;2023-06-22T23:11:58;9.60;;;3.70;;
57331;SDS011;43164;50.908;18.092;2023-06-22T23:14:35;10.90;;;4.50;;
57331;SDS011;43164;50.908;18.092;2023-06-22T23:17:04;10.80;;;4.40;;
57331;SDS011;43164;50.908;18.092;2023-06-22T23:19:33;8.10;;;4.30;;
57331;SDS011;43164;50.908;18.092;2023-06-22T23:22:02;7.40;;;3.60;;
57331;SDS011;43164;50.908;18.092;2023-06-22T23:24:30;7.90;;;3.80;;
57331;SDS011;43164;50.908;18.092;2023-06-22T23:29:35;9.30;;;4.00;;
57331;SDS011;43164;50.908;18.092;2023-06-22T23:32:09;7.30;;;3.60;;
57331;SDS011;43164;50.908;18.092;2023-06-22T23:34:37;9.20;;;4.20;;
57331;SDS011;43164;50.908;18.092;2023-06-22T23:37:14;6.80;;;3.70;;
57331;SDS011;43164;50.908;18.092;2023-06-22T23:39:44;7.50;;;4.10;;
57331;SDS011;43164;50.908;18.092;2023-06-22T23:42:19;8.80;;;4.00;;
57331;SDS011;43164;50.908;18.092;2023-06-22T23:44:49;7.70;;;3.80;;
57331;SDS011;43164;50.908;18.092;2023-06-22T23:47:18;7.10;;;3.80;;
57331;SDS011;43164;50.908;18.092;2023-06-22T23:49:50;7.70;;;4.00;;
57331;SDS011;43164;50.908;18.092;2023-06-22T23:52:25;8.10;;;4.10;;
57331;SDS011;43164;50.908;18.092;2023-06-22T23:54:54;13.90;;;5.00;;
57331;SDS011;43164;50.908;18.092;2023-06-22T23:57:30;9.40;;;4.60;;
